Time;durP1;ratioP1;P1;durP2;ratioP2;P2;SDS_P1;SDS_P2;PMS_P1;PMS_P2;Temp;Humidity;BMP_temperature;BMP_pressure;BME280_temperature;BME280_humidity;BME280_pressure;Samples;Min_cycle;Max_cycle;Signal;HPM_P1;HPM_P2
2022/03/27 00:03:41;;;;;;;21.80;12.80;;;;;;;9.59;52.79;100243.05;233330;1217;139084;-58
2022/03/27 00:08:44;;;;;;;21.80;12.50;;;;;;;9.51;52.79;100249.73;233812;1217;139021;-57
2022/03/27 00:13:47;;;;;;;20.40;12.70;;;;;;;9.49;52.81;100260.98;233190;1219;139792;-58
2022/03/27 00:18:51;;;;;;;15.10;11.50;;;;;;;9.46;52.80;100266.57;233172;1219;139573;-60
2022/03/27 00:23:54;;;;;;;16.80;11.30;;;;;;;9.38;52.63;100283.35;233227;1217;139276;-59
2022/03/27 00:28:57;;;;;;;15.80;10.60;;;;;;;9.28;52.40;100289.59;233308;1217;139918;-59
2022/03/27 00:34:00;;;;;;;15.30;8.30;;;;;;;9.18;51.92;100303.04;233203;1217;139063;-59
2022/03/27 00:39:03;;;;;;;12.30;4.90;;;;;;;9.04;50.79;100307.95;233158;1217;139478;-60
2022/03/27 00:44:06;;;;;;;8.00;4.50;;;;;;;8.88;49.44;100318.44;233189;1219;139324;-59
2022/03/27 00:49:09;;;;;;;9.70;3.80;;;;;;;8.69;48.41;100327.20;233263;1217;139222;-58
2022/03/27 00:54:12;;;;;;;12.50;4.30;;;;;;;8.52;48.01;100334.51;233291;1217;138933;-59
2022/03/27 00:59:15;;;;;;;9.30;3.60;;;;;;;8.40;47.82;100338.23;233382;1217;138902;-59
2022/03/27 01:04:19;;;;;;;7.20;3.90;;;;;;;8.30;47.13;100338.55;233357;1217;139537;-59
2022/03/27 01:09:37;;;;;;;7.10;3.30;;;;;;;8.17;46.93;100340.00;233309;1217;138625;-59
2022/03/27 01:14:41;;;;;;;10.70;3.70;;;;;;;8.04;46.83;100357.17;233221;1217;138936;-59
2022/03/27 01:19:49;;;;;;;10.70;3.90;;;;;;;7.93;46.24;100364.94;233179;1217;140027;-57
2022/03/27 01:24:52;;;;;;;5.90;3.00;;;;;;;7.80;46.33;100374.16;233238;1217;140576;-59
2022/03/27 01:29:56;;;;;;;8.60;3.40;;;;;;;7.70;46.33;100374.81;233211;1218;139449;-60
2022/03/27 01:34:59;;;;;;;9.80;3.40;;;;;;;7.60;45.73;100383.54;233341;1217;138997;-60
2022/03/27 01:40:03;;;;;;;9.90;3.20;;;;;;;7.51;45.32;100385.23;233287;1217;139048;-60
2022/03/27 01:45:07;;;;;;;5.00;2.70;;;;;;;7.44;45.29;100386.49;233202;1217;138984;-57
2022/03/27 01:50:10;;;;;;;5.80;2.50;;;;;;;7.34;44.75;100394.02;233177;1218;138806;-57
2022/03/27 01:55:16;;;;;;;6.40;2.30;;;;;;;7.26;45.05;100400.90;233193;1219;139730;-58
2022/03/27 02:00:19;;;;;;;4.30;2.20;;;;;;;7.17;44.78;100402.02;233234;1218;138717;-59
2022/03/27 02:05:23;;;;;;;7.80;2.60;;;;;;;7.09;44.91;100407.88;233340;1218;139324;-60
2022/03/27 02:10:26;;;;;;;8.00;2.60;;;;;;;7.01;44.42;100416.04;233247;1217;140543;-60
2022/03/27 02:15:29;;;;;;;9.20;2.50;;;;;;;6.94;44.59;100421.17;232841;1220;140396;-59
2022/03/27 02:20:32;;;;;;;6.80;2.60;;;;;;;6.84;44.59;100420.16;233261;1217;138715;-60
2022/03/27 02:25:35;;;;;;;6.90;3.00;;;;;;;6.75;44.50;100414.76;233273;1217;139752;-58
2022/03/27 02:30:38;;;;;;;9.50;3.60;;;;;;;6.65;44.03;100419.57;233188;1218;139292;-60
2022/03/27 02:35:41;;;;;;;10.10;3.60;;;;;;;6.59;44.55;100423.23;233267;1217;139144;-60
2022/03/27 02:40:45;;;;;;;12.10;3.20;;;;;;;6.50;44.37;100431.20;233350;1217;140047;-60
2022/03/27 02:45:50;;;;;;;10.50;3.20;;;;;;;6.41;44.53;100437.40;233272;1217;139597;-60
2022/03/27 02:50:53;;;;;;;8.30;3.30;;;;;;;6.32;44.84;100445.38;233129;1219;139100;-60
2022/03/27 02:55:56;;;;;;;7.50;3.00;;;;;;;6.21;44.75;100446.30;233264;1217;139189;-59
2022/03/27 03:01:03;;;;;;;6.40;3.00;;;;;;;6.14;44.88;100448.73;233306;1217;142047;-60
2022/03/27 03:06:07;;;;;;;8.10;3.00;;;;;;;6.06;44.68;100456.84;233183;1219;150771;-57
2022/03/27 03:11:13;;;;;;;7.30;2.70;;;;;;;5.98;44.84;100461.05;233316;1217;139567;-58
2022/03/27 03:16:16;;;;;;;;;;;;;;;5.87;44.76;100461.77;233111;1219;139287;-57
2022/03/27 03:21:21;;;;;;;8.10;3.10;;;;;;;5.74;45.10;100466.06;233275;1217;125795;-58
2022/03/27 03:26:24;;;;;;;10.90;3.30;;;;;;;5.64;45.53;100457.11;233195;1218;140601;-58
2022/03/27 03:31:28;;;;;;;10.30;3.80;;;;;;;5.57;45.19;100456.18;233133;1217;139683;-58
2022/03/27 03:36:31;;;;;;;8.50;3.30;;;;;;;5.50;45.37;100456.48;233207;1218;139419;-59
2022/03/27 03:41:34;;;;;;;11.40;4.30;;;;;;;5.41;45.67;100453.83;233305;1217;139037;-59
2022/03/27 03:46:57;;;;;;;10.40;4.30;;;;;;;5.32;45.77;100460.16;233368;1217;140140;-58
2022/03/27 03:52:00;;;;;;;14.80;5.30;;;;;;;5.22;45.95;100467.90;233175;1219;139991;-59
2022/03/27 03:57:05;;;;;;;13.30;6.00;;;;;;;5.12;46.00;100478.80;233226;1217;140526;-57
2022/03/27 04:02:08;;;;;;;18.40;6.60;;;;;;;5.01;46.06;100484.44;233245;1217;140240;-57
2022/03/27 04:07:11;;;;;;;13.60;5.70;;;;;;;4.89;46.35;100492.02;233217;1217;139783;-59
2022/03/27 04:12:14;;;;;;;12.30;5.10;;;;;;;4.78;46.47;100493.93;233166;1217;139759;-58
2022/03/27 04:17:17;;;;;;;11.50;5.00;;;;;;;4.70;46.76;100499.33;233338;1217;140243;-59
2022/03/27 04:22:21;;;;;;;10.10;4.60;;;;;;;4.63;46.61;100497.30;233198;1217;139964;-61
2022/03/27 04:27:24;;;;;;;11.20;4.60;;;;;;;4.57;46.74;100497.92;233252;1217;139774;-57
2022/03/27 04:32:27;;;;;;;12.20;4.80;;;;;;;4.51;46.93;100505.92;233089;1217;140236;-58
2022/03/27 04:37:30;;;;;;;14.80;5.20;;;;;;;4.46;47.02;100509.69;233239;1216;139649;-58
2022/03/27 04:42:33;;;;;;;13.90;5.20;;;;;;;4.41;47.09;100515.89;233248;1217;139758;-59
2022/03/27 04:47:37;;;;;;;13.60;5.80;;;;;;;4.35;47.27;100513.35;233307;1217;139174;-59
2022/03/27 04:52:39;;;;;;;15.00;6.30;;;;;;;4.31;47.52;100516.73;233176;1217;139248;-59
2022/03/27 04:57:43;;;;;;;11.20;6.10;;;;;;;4.30;47.56;100524.12;233094;1219;140246;-58
2022/03/27 05:02:46;;;;;;;17.00;6.40;;;;;;;4.28;47.63;100531.52;233280;1217;140460;-59
2022/03/27 05:07:49;;;;;;;16.50;6.40;;;;;;;4.29;47.76;100531.88;233082;1217;139982;-59
2022/03/27 05:12:52;;;;;;;16.80;6.30;;;;;;;4.24;47.76;100538.08;233205;1217;138841;-59
2022/03/27 05:17:58;;;;;;;13.80;6.30;;;;;;;4.18;47.83;100543.58;233324;1217;139855;-59
2022/03/27 05:23:02;;;;;;;11.70;6.00;;;;;;;4.16;47.91;100547.64;233281;1217;139708;-59
2022/03/27 05:28:05;;;;;;;12.20;6.10;;;;;;;4.17;48.12;100552.21;232716;1217;139005;-59
2022/03/27 05:33:08;;;;;;;10.80;5.40;;;;;;;4.18;48.27;100555.91;233350;1217;139378;-59
2022/03/27 05:38:11;;;;;;;15.20;5.30;;;;;;;4.23;48.26;100556.69;233255;1217;139519;-57
2022/03/27 05:43:14;;;;;;;10.70;5.10;;;;;;;4.28;48.50;100556.65;233307;1217;139129;-58
2022/03/27 05:48:17;;;;;;;14.60;5.40;;;;;;;4.35;48.41;100565.52;233178;1218;140815;-58
2022/03/27 05:53:20;;;;;;;9.70;4.30;;;;;;;4.45;48.48;100571.02;233274;1218;139158;-60
2022/03/27 05:58:23;;;;;;;9.70;4.00;;;;;;;4.59;48.64;100579.99;233225;1218;140813;-58
2022/03/27 06:03:26;;;;;;;11.70;4.30;;;;;;;4.78;48.71;100591.68;233270;1218;140191;-59
2022/03/27 06:08:30;;;;;;;7.40;4.00;;;;;;;4.95;48.70;100597.61;233217;1217;140780;-57
2022/03/27 06:13:34;;;;;;;9.90;3.80;;;;;;;5.14;48.76;100595.23;233051;1217;142020;-57
2022/03/27 06:18:36;;;;;;;10.10;4.10;;;;;;;5.31;48.36;100599.73;233198;1217;139405;-56
2022/03/27 06:23:40;;;;;;;9.10;4.50;;;;;;;5.48;48.45;100603.32;233241;1217;140073;-58
2022/03/27 06:28:42;;;;;;;52.70;32.80;;;;;;;5.66;48.26;100603.20;233171;1217;139008;-56
2022/03/27 06:33:46;;;;;;;19.00;9.70;;;;;;;5.88;48.08;100598.09;233135;1219;139401;-58
2022/03/27 06:38:49;;;;;;;9.60;3.90;;;;;;;6.14;47.78;100593.23;233090;1218;138921;-57
2022/03/27 06:43:52;;;;;;;7.40;2.70;;;;;;;6.27;47.14;100600.73;233146;1217;139888;-57
2022/03/27 06:48:55;;;;;;;5.90;2.00;;;;;;;6.41;46.67;100607.70;233201;1218;139927;-56
2022/03/27 06:54:00;;;;;;;6.10;2.00;;;;;;;6.54;46.54;100609.54;233165;1217;138957;-58
2022/03/27 06:59:03;;;;;;;94.50;54.80;;;;;;;6.69;46.23;100614.70;233187;1217;139081;-58
2022/03/27 07:04:06;;;;;;;13.20;7.30;;;;;;;6.91;45.84;100619.71;233145;1217;139570;-57
2022/03/27 07:09:10;;;;;;;7.40;2.40;;;;;;;7.10;45.25;100622.11;233168;1217;139501;-58
2022/03/27 07:14:13;;;;;;;3.60;1.30;;;;;;;7.22;43.51;100619.20;233120;1217;138890;-56
2022/03/27 07:19:16;;;;;;;96.40;68.50;;;;;;;7.25;42.07;100617.88;233162;1217;141756;-56
2022/03/27 07:24:20;;;;;;;6.20;3.00;;;;;;;7.34;42.02;100622.45;233172;1217;140297;-57
2022/03/27 07:29:22;;;;;;;3.70;1.50;;;;;;;7.48;41.32;100625.14;233300;1217;138976;-53
2022/03/27 07:34:25;;;;;;;3.80;1.10;;;;;;;7.50;40.70;100633.89;233024;1217;139694;-58
2022/03/27 07:39:28;;;;;;;2.30;0.90;;;;;;;7.50;40.24;100642.38;233175;1219;139000;-58
2022/03/27 07:44:33;;;;;;;1.10;0.50;;;;;;;7.59;40.06;100653.63;233180;1217;140420;-58
2022/03/27 07:49:36;;;;;;;271.60;175.80;;;;;;;7.72;39.55;100654.20;233183;1217;140249;-56
2022/03/27 07:54:39;;;;;;;6.30;3.80;;;;;;;7.92;39.45;100658.14;233185;1217;141861;-58
2022/03/27 07:59:42;;;;;;;3.00;1.50;;;;;;;8.04;38.89;100654.48;233337;1219;139998;-57
2022/03/27 08:04:45;;;;;;;4.80;1.20;;;;;;;8.15;38.58;100650.85;233201;1217;139393;-58
2022/03/27 08:09:48;;;;;;;3.40;0.90;;;;;;;8.26;38.24;100652.66;233209;1218;138696;-57
2022/03/27 08:14:53;;;;;;;3.60;0.90;;;;;;;8.36;37.58;100656.30;233094;1217;139045;-58
2022/03/27 08:19:56;;;;;;;3.10;0.90;;;;;;;8.42;37.05;100652.43;233198;1217;138637;-58
2022/03/27 08:24:59;;;;;;;3.30;1.00;;;;;;;8.46;36.59;100650.58;233153;1217;138751;-56
2022/03/27 08:30:03;;;;;;;2.70;1.00;;;;;;;8.53;36.51;100649.13;233337;1217;139184;-57
2022/03/27 08:35:06;;;;;;;14.40;7.80;;;;;;;8.99;38.58;100639.66;233186;1217;139154;-58
2022/03/27 08:40:09;;;;;;;7.00;2.10;;;;;;;9.86;37.90;100635.65;233170;1217;139903;-58
2022/03/27 08:45:13;;;;;;;3.10;1.30;;;;;;;9.99;36.96;100634.56;233179;1217;139386;-59
2022/03/27 08:50:34;;;;;;;2.80;0.90;;;;;;;10.05;35.87;100632.02;233220;1217;140924;-59
2022/03/27 08:55:55;;;;;;;30.80;21.00;;;;;;;9.95;35.26;100626.15;233169;1217;139438;-60
2022/03/27 09:01:04;;;;;;;7.50;3.10;;;;;;;9.89;35.29;100628.33;233276;1218;140828;-59
2022/03/27 09:06:08;;;;;;;4.70;1.40;;;;;;;9.80;34.77;100617.80;233138;1217;140936;-61
2022/03/27 09:11:17;;;;;;;2.60;1.10;;;;;;;9.89;34.45;100616.28;233288;1217;139991;-57
2022/03/27 09:16:20;;;;;;;2.40;1.10;;;;;;;9.85;34.00;100610.00;233146;1218;139526;-59
2022/03/27 09:21:25;;;;;;;3.50;0.80;;;;;;;9.91;34.13;100607.16;233162;1219;140350;-59
2022/03/27 09:26:31;;;;;;;3.20;0.80;;;;;;;10.10;33.75;100597.80;233096;1219;138929;-57
2022/03/27 09:31:34;;;;;;;251.60;139.40;;;;;;;10.18;33.47;100594.71;233139;1218;140337;-57
2022/03/27 09:36:43;;;;;;;15.10;7.70;;;;;;;10.28;33.51;100600.21;233153;1218;142399;-56
2022/03/27 09:41:54;;;;;;;4.30;1.90;;;;;;;10.37;33.14;100615.69;233271;1218;141000;-56
2022/03/27 09:47:13;;;;;;;19.10;9.70;;;;;;;10.40;32.72;100612.02;233180;1218;139139;-58
2022/03/27 09:52:19;;;;;;;5.10;1.60;;;;;;;10.55;32.52;100610.59;233155;1219;139999;-57
2022/03/27 09:57:32;;;;;;;3.50;1.10;;;;;;;10.59;32.17;100605.29;232956;1217;140060;-58
2022/03/27 10:02:35;;;;;;;2.80;0.80;;;;;;;10.63;31.92;100603.37;233153;1217;139177;-57
2022/03/27 10:07:39;;;;;;;2.20;0.90;;;;;;;10.70;31.93;100607.40;233195;1217;139400;-57
2022/03/27 10:12:46;;;;;;;2.30;0.90;;;;;;;10.80;31.85;100601.51;233200;1218;139356;-55
2022/03/27 10:17:55;;;;;;;4.10;1.10;;;;;;;11.01;31.97;100584.54;233312;1218;140466;-58
2022/03/27 10:23:04;;;;;;;3.40;0.90;;;;;;;11.25;31.73;100572.75;233216;1218;139395;-56
2022/03/27 10:28:08;;;;;;;16.00;1.40;;;;;;;11.58;32.58;100568.19;233163;1217;139448;-57
2022/03/27 10:33:12;;;;;;;3.60;1.20;;;;;;;12.49;34.30;100561.73;233093;1218;139962;-57
2022/03/27 10:38:26;;;;;;;65.50;42.00;;;;;;;13.42;33.02;100558.84;233042;1219;139987;-55
2022/03/27 10:43:46;;;;;;;8.60;3.40;;;;;;;14.20;33.19;100551.08;233010;1219;139493;-58
2022/03/27 10:48:51;;;;;;;3.30;1.60;;;;;;;14.39;30.98;100549.40;233073;1217;139245;-56
2022/03/27 10:54:10;;;;;;;2.80;1.20;;;;;;;14.17;30.25;100538.95;233182;1218;139028;-57
2022/03/27 10:59:22;;;;;;;3.10;1.00;;;;;;;13.84;29.61;100532.63;233134;1217;138852;-58
2022/03/27 11:04:33;;;;;;;4.60;2.10;;;;;;;13.67;29.46;100529.06;233146;1217;139774;-56
2022/03/27 11:09:44;;;;;;;3.30;0.90;;;;;;;13.71;29.79;100515.63;233206;1217;139974;-54
2022/03/27 11:15:00;;;;;;;2.00;1.00;;;;;;;13.55;29.42;100518.27;233195;1218;140520;-55
2022/03/27 11:20:07;;;;;;;297.50;215.10;;;;;;;13.53;29.46;100512.31;233190;1217;140355;-55
2022/03/27 11:25:37;;;;;;;7.90;3.30;;;;;;;13.63;29.61;100504.31;233087;1218;141047;-57
2022/03/27 11:30:49;;;;;;;6.00;2.10;;;;;;;13.74;29.37;100492.50;233051;1219;140353;-57
2022/03/27 11:36:04;;;;;;;4.00;1.80;;;;;;;13.84;28.98;100489.66;233233;1219;139349;-55
2022/03/27 11:41:34;;;;;;;3.60;1.20;;;;;;;14.16;29.94;100476.52;233216;1217;139191;-56
2022/03/27 11:46:37;;;;;;;2.30;1.10;;;;;;;14.37;28.81;100471.11;233165;1217;140251;-57
2022/03/27 11:51:40;;;;;;;5.90;1.20;;;;;;;14.31;28.17;100467.16;233087;1218;139899;-58
2022/03/27 11:56:57;;;;;;;5.20;1.40;;;;;;;14.56;29.13;100460.80;233096;1217;139925;-56
2022/03/27 12:02:03;;;;;;;2.90;1.20;;;;;;;15.15;28.62;100460.29;233090;1217;139563;-60
2022/03/27 12:07:07;;;;;;;2.80;1.00;;;;;;;15.07;28.02;100451.80;233075;1217;139972;-58
2022/03/27 12:12:12;;;;;;;3.50;1.30;;;;;;;15.17;28.37;100441.20;233247;1216;139673;-57
2022/03/27 12:17:15;;;;;;;23.80;17.60;;;;;;;15.17;27.50;100433.54;233264;1217;139921;-56
2022/03/27 12:22:34;;;;;;;3.70;1.90;;;;;;;15.76;29.49;100422.70;233115;1217;139885;-56
2022/03/27 12:33:01;;;;;;;22.00;10.50;;;;;;;16.30;27.57;100402.81;233027;1217;139639;-57
2022/03/27 12:38:04;;;;;;;4.60;2.00;;;;;;;16.49;27.52;100392.64;233161;1217;140621;-56
2022/03/27 12:43:13;;;;;;;2.70;1.00;;;;;;;16.59;26.98;100384.31;233026;1219;139406;-56
2022/03/27 12:48:18;;;;;;;2.00;1.10;;;;;;;16.74;27.06;100377.23;233199;1217;139748;-57
2022/03/27 12:53:21;;;;;;;183.40;126.60;;;;;;;16.82;26.85;100371.22;232980;1219;139422;-57
2022/03/27 12:58:35;;;;;;;8.30;5.10;;;;;;;17.01;26.60;100367.03;233079;1218;141669;-58
2022/03/27 13:03:40;;;;;;;4.10;1.60;;;;;;;17.03;26.26;100359.73;233097;1219;138951;-56
2022/03/27 13:08:43;;;;;;;3.00;1.20;;;;;;;17.18;26.16;100360.65;233055;1217;139373;-55
2022/03/27 13:14:00;;;;;;;3.70;1.10;;;;;;;17.27;26.01;100352.90;233086;1219;140108;-56
2022/03/27 13:19:05;;;;;;;3.10;1.50;;;;;;;17.32;25.42;100355.27;232849;1217;139507;-57
2022/03/27 13:24:14;;;;;;;8.80;5.60;;;;;;;17.55;26.49;100350.77;233283;1217;141133;-54
2022/03/27 13:29:19;;;;;;;3.50;1.80;;;;;;;17.76;25.98;100344.08;233123;1219;140496;-57
2022/03/27 13:34:22;;;;;;;5.20;2.20;;;;;;;17.92;26.28;100346.39;233010;1217;140236;-56
2022/03/27 13:39:27;;;;;;;4.70;2.40;;;;;;;18.23;26.56;100341.83;233058;1218;139461;-56
2022/03/27 13:44:31;;;;;;;3.40;1.90;;;;;;;18.35;27.02;100334.12;232998;1217;139608;-56
2022/03/27 13:49:34;;;;;;;3.50;1.60;;;;;;;18.95;27.96;100332.84;233061;1218;139939;-56
2022/03/27 13:54:38;;;;;;;3.50;1.80;;;;;;;19.39;27.30;100324.45;233057;1217;139696;-56
2022/03/27 13:59:41;;;;;;;2.60;1.60;;;;;;;19.57;26.87;100317.05;233202;1219;139693;-57
2022/03/27 14:04:44;;;;;;;2.40;1.20;;;;;;;19.36;25.79;100306.30;233212;1217;139916;-58
2022/03/27 14:09:47;;;;;;;4.60;1.40;;;;;;;18.72;25.31;100294.35;233041;1217;140015;-57
2022/03/27 14:14:50;;;;;;;3.50;1.30;;;;;;;18.22;25.10;100296.06;233034;1218;140603;-57
2022/03/27 14:19:53;;;;;;;5.20;2.70;;;;;;;17.69;25.21;100294.29;233061;1217;139478;-57
2022/03/27 14:24:56;;;;;;;3.00;1.70;;;;;;;17.25;24.60;100287.54;232964;1220;140543;-56
2022/03/27 14:29:59;;;;;;;1.80;1.20;;;;;;;16.69;24.43;100286.35;233280;1217;139675;-58
2022/03/27 14:35:04;;;;;;;2.40;1.10;;;;;;;16.12;24.18;100285.08;232723;1217;139516;-59
2022/03/27 14:40:10;;;;;;;3.30;1.40;;;;;;;15.64;24.45;100288.02;233121;1217;139637;-55
2022/03/27 14:45:14;;;;;;;4.50;1.70;;;;;;;15.13;24.04;100286.98;232855;1217;139235;-58
2022/03/27 14:50:18;;;;;;;3.70;1.50;;;;;;;14.77;24.46;100282.59;233122;1217;139592;-58
2022/03/27 15:00:43;;;;;;;4.30;1.80;;;;;;;14.30;24.89;100274.91;232977;1218;139349;-56
2022/03/27 15:05:46;;;;;;;3.90;1.60;;;;;;;14.16;24.78;100266.28;233136;1217;139253;-55
2022/03/27 15:10:49;;;;;;;97.60;78.30;;;;;;;14.09;25.54;100267.91;233060;1217;140135;-55
2022/03/27 15:15:53;;;;;;;14.10;6.80;;;;;;;14.22;27.13;100265.02;233035;1218;140005;-57
2022/03/27 15:20:56;;;;;;;5.60;2.10;;;;;;;14.33;25.95;100254.39;233101;1217;139541;-57
2022/03/27 15:26:00;;;;;;;3.90;1.60;;;;;;;14.19;25.48;100259.88;233049;1218;139066;-58
2022/03/27 15:31:03;;;;;;;4.60;1.50;;;;;;;14.01;25.40;100250.36;233059;1217;139672;-58
2022/03/27 15:36:06;;;;;;;4.40;1.70;;;;;;;13.84;25.36;100250.05;233095;1217;139193;-58
2022/03/27 15:41:11;;;;;;;4.00;1.30;;;;;;;13.68;25.40;100244.84;233071;1217;139426;-57
2022/03/27 15:46:18;;;;;;;3.10;1.60;;;;;;;13.55;25.37;100235.09;233027;1217;139149;-55
2022/03/27 15:51:21;;;;;;;3.60;1.50;;;;;;;13.43;25.52;100228.39;233129;1217;139576;-58
2022/03/27 15:56:24;;;;;;;4.60;1.50;;;;;;;13.33;25.69;100234.86;232998;1217;139377;-56
2022/03/27 16:01:28;;;;;;;181.80;138.30;;;;;;;13.24;25.47;100236.02;233119;1217;139280;-59
2022/03/27 16:06:32;;;;;;;15.20;9.40;;;;;;;13.24;26.51;100228.36;233036;1217;140402;-58
2022/03/27 16:11:36;;;;;;;5.40;2.50;;;;;;;13.25;26.17;100227.28;233165;1217;140566;-56
2022/03/27 16:16:39;;;;;;;2.70;1.40;;;;;;;13.15;25.46;100223.48;233113;1217;139636;-57
2022/03/27 16:21:44;;;;;;;4.80;1.80;;;;;;;13.03;25.94;100224.67;233089;1217;139695;-57
2022/03/27 16:26:48;;;;;;;4.00;1.70;;;;;;;12.89;26.14;100218.63;233021;1217;139438;-57
2022/03/27 16:31:51;;;;;;;2.90;1.50;;;;;;;12.78;26.38;100212.09;233096;1217;139129;-58
2022/03/27 16:36:57;;;;;;;3.90;1.80;;;;;;;12.66;26.26;100212.17;232915;1217;139213;-57
2022/03/27 16:42:00;;;;;;;3.20;1.60;;;;;;;12.53;26.42;100210.35;233217;1217;139463;-58
2022/03/27 16:47:04;;;;;;;4.20;1.90;;;;;;;12.42;26.58;100203.45;233095;1217;139025;-57
2022/03/27 16:52:08;;;;;;;4.00;1.60;;;;;;;12.32;26.75;100198.27;232931;1217;139256;-58
2022/03/27 16:57:13;;;;;;;2.60;1.50;;;;;;;12.22;26.65;100189.89;233030;1219;139447;-56
2022/03/27 17:02:16;;;;;;;3.00;1.40;;;;;;;12.08;26.51;100191.98;233224;1217;140157;-56
2022/03/27 17:07:23;;;;;;;4.20;1.60;;;;;;;12.01;26.44;100185.42;233032;1217;140191;-53
2022/03/27 17:12:26;;;;;;;5.70;3.70;;;;;;;11.94;26.39;100183.08;233099;1217;139301;-57
2022/03/27 17:17:29;;;;;;;11.70;7.70;;;;;;;12.03;27.81;100187.27;233210;1217;139024;-57
2022/03/27 17:22:35;;;;;;;9.70;4.50;;;;;;;12.14;26.91;100184.07;233049;1217;139351;-57
2022/03/27 17:27:38;;;;;;;6.80;2.80;;;;;;;12.03;26.84;100185.29;233006;1219;141909;-57
2022/03/27 17:32:49;;;;;;;6.00;2.60;;;;;;;11.88;26.59;100189.77;233123;1217;138898;-57
2022/03/27 17:37:52;;;;;;;9.70;3.00;;;;;;;11.71;26.65;100192.73;233048;1217;140954;-58
2022/03/27 17:42:59;;;;;;;12.00;2.90;;;;;;;11.53;26.90;100200.11;232912;1218;139223;-56
2022/03/27 17:48:03;;;;;;;12.50;3.00;;;;;;;11.35;27.05;100198.34;233011;1219;139192;-57
2022/03/27 17:53:06;;;;;;;8.80;3.00;;;;;;;11.17;27.31;100205.54;233081;1219;141032;-56
2022/03/27 17:58:13;;;;;;;52.00;36.80;;;;;;;11.07;27.89;100209.39;233036;1218;140426;-57
2022/03/27 18:03:16;;;;;;;7.50;4.00;;;;;;;11.11;28.27;100213.64;232600;1219;139898;-57
2022/03/27 18:08:21;;;;;;;10.00;3.40;;;;;;;10.98;27.78;100212.42;233055;1217;139520;-57
2022/03/27 18:13:25;;;;;;;12.10;4.00;;;;;;;10.86;27.93;100216.18;233148;1217;139410;-57
2022/03/27 18:18:28;;;;;;;45.20;30.90;;;;;;;10.83;28.84;100215.95;233044;1217;140364;-58
2022/03/27 18:23:37;;;;;;;21.80;9.60;;;;;;;11.20;31.09;100207.20;233188;1217;140402;-57
2022/03/27 18:28:42;;;;;;;18.30;5.20;;;;;;;11.63;30.15;100212.33;233083;1219;142208;-58
2022/03/27 18:33:45;;;;;;;13.00;4.10;;;;;;;11.29;28.88;100208.70;233120;1217;139624;-58
2022/03/27 18:38:49;;;;;;;14.80;4.60;;;;;;;10.95;28.62;100210.64;233127;1219;140366;-57
2022/03/27 18:43:54;;;;;;;14.40;4.70;;;;;;;10.61;29.22;100207.66;233032;1217;139456;-58
2022/03/27 18:48:57;;;;;;;12.70;4.70;;;;;;;10.32;29.51;100203.27;232470;1217;139184;-58
2022/03/27 18:54:00;;;;;;;13.10;4.10;;;;;;;10.08;29.85;100203.68;233322;1217;140080;-57
2022/03/27 18:59:03;;;;;;;12.40;4.40;;;;;;;9.87;30.09;100203.14;233027;1217;139866;-58
2022/03/27 19:04:07;;;;;;;25.10;11.30;;;;;;;9.71;30.45;100198.98;233094;1217;139621;-56
2022/03/27 19:09:11;;;;;;;19.60;9.00;;;;;;;9.65;31.44;100195.48;233118;1217;140424;-59
2022/03/27 19:14:15;;;;;;;24.20;7.00;;;;;;;9.59;31.43;100197.17;233126;1217;142071;-59
2022/03/27 19:19:39;;;;;;;19.10;8.10;;;;;;;9.41;31.47;100194.14;233073;1217;139546;-59
2022/03/27 19:24:42;;;;;;;18.80;8.00;;;;;;;9.26;31.83;100200.39;233082;1215;140345;-58
2022/03/27 19:29:47;;;;;;;24.00;11.60;;;;;;;9.07;32.19;100197.90;233211;1217;139894;-60
2022/03/27 19:34:51;;;;;;;36.40;15.50;;;;;;;8.90;32.58;100187.21;233000;1219;139977;-63
2022/03/27 19:39:54;;;;;;;41.70;17.40;;;;;;;8.74;32.71;100181.96;233018;1217;140026;-60
2022/03/27 19:44:57;;;;;;;40.10;17.80;;;;;;;8.60;32.86;100179.80;233097;1217;140033;-60
2022/03/27 19:50:01;;;;;;;43.30;20.50;;;;;;;8.47;33.13;100181.14;233057;1218;139466;-60
2022/03/27 19:55:05;;;;;;;47.90;22.00;;;;;;;8.32;33.17;100184.45;233199;1217;139432;-61
2022/03/27 20:00:11;;;;;;;49.60;23.30;;;;;;;8.21;33.46;100180.77;233216;1219;139468;-60
2022/03/27 20:05:16;;;;;;;52.60;23.70;;;;;;;8.10;33.71;100181.48;233162;1217;139203;-58
2022/03/27 20:10:20;;;;;;;65.10;28.60;;;;;;;7.94;33.99;100181.86;233092;1217;139830;-63
2022/03/27 20:15:23;;;;;;;72.60;29.70;;;;;;;7.79;34.49;100178.10;233157;1217;139497;-60
2022/03/27 20:20:27;;;;;;;69.20;27.80;;;;;;;7.66;34.70;100176.39;233153;1217;139774;-61
2022/03/27 20:25:30;;;;;;;62.50;26.30;;;;;;;7.54;34.66;100183.30;233206;1217;139894;-60
2022/03/27 20:30:33;;;;;;;49.60;22.70;;;;;;;7.37;35.07;100189.14;233165;1217;139747;-59
2022/03/27 20:35:36;;;;;;;51.90;24.00;;;;;;;7.19;35.27;100183.14;233280;1217;139272;-60
2022/03/27 20:40:40;;;;;;;50.60;22.90;;;;;;;7.09;35.48;100172.15;233172;1217;141755;-56
2022/03/27 20:45:44;;;;;;;45.20;22.40;;;;;;;6.97;35.40;100160.48;233066;1219;140615;-57
2022/03/27 20:50:49;;;;;;;46.70;23.10;;;;;;;6.95;35.83;100172.19;233148;1218;141220;-56
2022/03/27 20:55:52;;;;;;;48.10;22.70;;;;;;;6.90;35.98;100178.16;233157;1217;139352;-58
2022/03/27 21:00:55;;;;;;;47.90;22.10;;;;;;;6.84;36.39;100175.14;233180;1217;139811;-61
2022/03/27 21:05:59;;;;;;;56.20;24.00;;;;;;;6.80;36.51;100169.45;233188;1217;139896;-61
2022/03/27 21:11:02;;;;;;;51.80;23.10;;;;;;;6.76;36.66;100165.33;233191;1217;141041;-63
2022/03/27 21:16:08;;;;;;;48.40;25.00;;;;;;;6.71;37.08;100165.11;233010;1217;139807;-59
2022/03/27 21:21:15;;;;;;;56.30;26.00;;;;;;;6.64;37.40;100156.33;232594;1217;139624;-60
2022/03/27 21:26:18;;;;;;;57.20;26.00;;;;;;;6.59;37.04;100154.67;233218;1217;139167;-63
2022/03/27 21:31:21;;;;;;;50.10;24.00;;;;;;;6.53;37.30;100155.58;233111;1219;139045;-61
2022/03/27 21:36:24;;;;;;;46.70;24.10;;;;;;;6.39;37.41;100148.75;233310;1219;139128;-62
2022/03/27 21:41:28;;;;;;;48.30;24.20;;;;;;;6.26;37.73;100145.71;233253;1218;140564;-60
2022/03/27 21:46:31;;;;;;;49.00;24.10;;;;;;;6.18;37.87;100148.06;233132;1217;139481;-63
2022/03/27 21:51:34;;;;;;;51.60;24.10;;;;;;;6.07;38.07;100144.48;233172;1217;141128;-62
2022/03/27 21:56:37;;;;;;;51.80;25.00;;;;;;;5.96;38.44;100142.63;233209;1218;140024;-62
2022/03/27 22:01:43;;;;;;;53.50;25.00;;;;;;;5.87;38.29;100141.05;233178;1217;139563;-66
2022/03/27 22:06:50;;;;;;;45.60;23.30;;;;;;;5.81;38.65;100135.75;233170;1217;139135;-63
2022/03/27 22:11:53;;;;;;;49.20;23.70;;;;;;;5.73;38.81;100143.86;233331;1218;140015;-62
2022/03/27 22:16:56;;;;;;;45.00;23.60;;;;;;;5.66;39.23;100150.04;233191;1218;141870;-63
2022/03/27 22:21:59;;;;;;;51.60;23.80;;;;;;;5.61;39.09;100145.05;233336;1217;138957;-62
2022/03/27 22:27:03;;;;;;;47.70;24.10;;;;;;;5.56;39.30;100140.95;233278;1218;139452;-61
2022/03/27 22:32:06;;;;;;;54.80;25.90;;;;;;;5.49;39.33;100142.51;233179;1217;139445;-62
2022/03/27 22:37:09;;;;;;;53.00;24.90;;;;;;;5.43;39.62;100135.45;233088;1217;139398;-59
2022/03/27 22:42:12;;;;;;;56.00;25.80;;;;;;;5.36;39.80;100131.71;233224;1219;139521;-63
2022/03/27 22:47:18;;;;;;;54.60;26.40;;;;;;;5.29;39.61;100126.63;233248;1217;139622;-64
2022/03/27 22:52:21;;;;;;;51.70;25.70;;;;;;;5.22;39.89;100117.98;233315;1217;139521;-63
2022/03/27 22:57:24;;;;;;;51.20;25.70;;;;;;;5.17;39.92;100108.77;233066;1218;140613;-61
2022/03/27 23:02:27;;;;;;;54.70;25.60;;;;;;;5.09;40.16;100109.47;233194;1217;139181;-62
2022/03/27 23:07:30;;;;;;;56.50;25.70;;;;;;;5.04;40.40;100111.36;233347;1217;139138;-58
2022/03/27 23:12:34;;;;;;;56.80;26.80;;;;;;;4.96;40.51;100114.30;233197;1219;139013;-59
2022/03/27 23:17:37;;;;;;;50.90;26.00;;;;;;;4.91;40.70;100106.16;232762;1217;139872;-53